BXJ weather

Boralday Airport
Aima Ata, Almaty Region, Kazakhstan

Public forecast

Using degrees Celsius for public forecast. Weather courtesy of forecast.io.

Closest aviation weather report (METAR) to Boralday Airport

Closest report is Almaty Airport, 6.8 nm (12.7 km) E. Retrieved 2020/02/17 17:30 UTC (30 minutes ago):

UAAA 171730Z 02002MPS 3300 BR SCT050 OVC100 M04/M05 Q1030 R05L/CLRD65 R05R/3///50 NOSIG

Closest aviation forecast (TAF) to Boralday Airport

Closest forecast is Almaty Airport, 6.8 nm (12.7 km) E. Retrieved 2020/02/17 12:24 UTC (6 hours ago):

TAF TAF UAAA 171100Z 1712/1812 25003G09MPS 1200 BR BKN011 BKN033CB TXM03/1808Z TNM07/1801Z TEMPO 1712/1721 20004MPS 0400 FZFG BKN003 BECMG 1721/1722 1000 -SHSN BR TEMPO 1721/1806 0200 SHSN FZFG VV001 TEMPO 1806/1812 02004MPS 3100 BKN004 OVC011CB